Flight Track Log - Related Links

Times and Time Zones

All times are in EDT time to prevent confusion due to time zone crossing. See the UPS1057 flight status page for this flight to view local times or setup timezone preferences in your user account.

Time Position Orientation Groundspeed Altitude Reporting Facility
EDT Latitude Longitude Course Direction KTS MPH feet Rate Location/Type
Wed 09:40:25 PM 42.9473 -71.4432 335° Northwest 158 182 1,500  Level FlightAware ADS-B (KASH)
Wed 09:40:41 PM 42.9590 -71.4508 334° Northwest 183 211 2,100 2,133 Climbing FlightAware ADS-B (KASH)
Wed 09:41:10 PM 42.9841 -71.4657 339° North 224 258 3,100 2,538 Climbing FlightAware ADS-B (KASH)
Wed 09:41:33 PM 43.0055 -71.4769 336° Northwest 237 273 4,300 2,903 Climbing FlightAware ADS-B
Wed 09:41:41 PM 43.0145 -71.4845 321° Northwest 251 289 4,600 2,526 Climbing FlightAware ADS-B (KASH)
Wed 09:41:52 PM 43.0232 -71.4986 304° West 263 303 5,100 3,273 Climbing FlightAware ADS-B
Wed 09:42:14 PM 43.0352 -71.5271 287° West 272 313 6,400 3,636 Climbing FlightAware ADS-B
Wed 09:42:25 PM 43.0374 -71.5501 270° West 275 316 7,100 3,778 Climbing FlightAware ADS-B (KASH)
Wed 09:42:41 PM 43.0370 -71.5764 270° West 275 316 8,100 3,677 Climbing FlightAware ADS-B (KASH)
Wed 09:42:56 PM 43.0371 -71.6029 271° West 279 321 9,000 3,400 Climbing FlightAware ADS-B (KASH)
Wed 09:43:11 PM 43.0374 -71.6295 271° West 285 328 9,800 2,591 Climbing FlightAware ADS-B (KASH)
Wed 09:43:40 PM 43.0372 -71.6842 270° West 317 365 10,900 2,400 Climbing FlightAware ADS-B (KASH)
Wed 09:44:11 PM 43.0355 -71.7499 269° West 346 398 12,200 3,333 Climbing FlightAware ADS-B (KASH)
Wed 09:44:43 PM 43.0345 -71.8002 268° West 353 406 14,400 4,160 Climbing FlightAware ADS-B
Wed 09:45:26 PM 43.0320 -71.9188 270° West 366 421 17,400 3,862 Climbing FlightAware ADS-B (KASH)
Wed 09:46:10 PM 43.0300 -72.0222 270° West 381 438 20,000 3,440 Climbing FlightAware ADS-B (KASH)
Wed 09:46:41 PM 43.0284 -72.0980 270° West 390 449 21,700 3,043 Climbing FlightAware ADS-B (KASH)
Wed 09:47:19 PM 43.0263 -72.1933 269° West 405 466 23,500 2,880 Climbing FlightAware ADS-B (KASH)
Wed 09:47:56 PM 43.0241 -72.2888 269° West 411 473 25,300 2,846 Climbing FlightAware ADS-B (KASH)
Wed 09:48:37 PM 43.0215 -72.3963 269° West 423 487 27,200 2,667 Climbing FlightAware ADS-B (KASH)
Wed 09:49:08 PM 43.0177 -72.4796 261° West 427 491 28,500 2,421 Climbing FlightAware ADS-B (KASH)
Wed 09:49:34 PM 43.0050 -72.5473 250° West 431 496 29,500 2,582 Climbing FlightAware ADS-B (KASH)
Wed 09:50:27 PM 42.9630 -72.6807 246° West 434 499 31,900 2,630 Climbing FlightAware ADS-B (KASH)
Wed 09:52:16 PM 42.8755 -72.9490 246° West 417 480 36,600 2,140 Climbing FlightAware ADS-B
Wed 09:53:18 PM 42.8293 -73.0888 246° West 392 451 38,000 816 Climbing FlightAware ADS-B
Wed 09:53:59 PM 42.7980 -73.1836 246° West 390 449 38,000  Level FlightAware ADS-B
Wed 09:54:39 PM 42.7686 -73.2721 246° West 395 455 38,000  Level FlightAware ADS-B
Wed 09:55:17 PM 42.7397 -73.3588 246° West 400 460 38,000  Level FlightAware ADS-B
Wed 09:55:49 PM 42.7146 -73.4339 246° West 404 465 38,000  Level FlightAware ADS-B
Wed 09:56:42 PM 42.6737 -73.5563 246° West 409 471 38,000  Level FlightAware ADS-B
Wed 09:57:17 PM 42.6462 -73.6380 245° Southwest 411 473 38,000  Level FlightAware ADS-B
Wed 09:58:17 PM 42.5987 -73.7784 245° Southwest 414 476 38,000  Level FlightAware ADS-B
Wed 09:59:17 PM 42.5518 -73.9165 245° Southwest 415 478 38,000  Level FlightAware ADS-B
Wed 10:00:17 PM 42.5022 -74.0617 245° Southwest 414 476 38,000  Level FlightAware ADS-B
Wed 10:01:18 PM 42.4539 -74.2026 245° Southwest 409 471 38,000  Level FlightAware ADS-B
Wed 10:01:59 PM 42.4230 -74.2930 245° Southwest 408 470 38,000  Level FlightAware ADS-B
Wed 10:02:18 PM 42.4062 -74.3410 245° Southwest 406 467 38,000  Level FlightAware ADS-B
Wed 10:02:34 PM 42.3930 -74.3800 245° Southwest 406 467 38,000  Level FlightAware ADS-B
Wed 10:03:05 PM 42.3690 -74.4480 245° Southwest 404 465 38,000  Level FlightAware ADS-B
Wed 10:03:17 PM 42.3612 -74.4706 245° Southwest 403 464 38,000  Level FlightAware ADS-B
Wed 10:03:40 PM 42.3410 -74.5290 245° Southwest 403 464 38,000  Level FlightAware ADS-B
Wed 10:04:16 PM 42.3120 -74.6110 245° Southwest 403 464 38,000  Level FlightAware ADS-B
Wed 10:04:17 PM 42.3116 -74.6132 245° Southwest 402 463 38,000  Level FlightAware ADS-B
Wed 10:04:46 PM 42.2880 -74.6790 245° Southwest 402 463 38,000  Level FlightAware ADS-B
Wed 10:05:18 PM 42.2639 -74.7496 245° Southwest 400 460 38,000  Level FlightAware ADS-B
Wed 10:05:58 PM 42.2320 -74.8410 245° Southwest 398 458 38,000  Level FlightAware ADS-B
Wed 10:06:29 PM 42.2080 -74.9080 245° Southwest 397 457 38,000  Level FlightAware ADS-B
Wed 10:06:59 PM 42.1840 -74.9750 245° Southwest 396 456 38,000  Level FlightAware ADS-B
Wed 10:07:17 PM 42.1697 -75.0169 245° Southwest 395 455 38,000  Level FlightAware ADS-B
Wed 10:07:34 PM 42.1570 -75.0540 245° Southwest 395 455 38,000  Level FlightAware ADS-B
Wed 10:08:10 PM 42.1280 -75.1340 245° Southwest 394 453 38,000  Level FlightAware ADS-B
Wed 10:08:17 PM 42.1246 -75.1439 245° Southwest 392 451 38,000  Level FlightAware ADS-B
Wed 10:09:10 PM 42.0820 -75.2630 245° Southwest 394 453 38,000  Level FlightAware ADS-B
Wed 10:09:17 PM 42.0756 -75.2809 244° Southwest 393 452 38,000  Level FlightAware ADS-B
Wed 10:09:47 PM 42.0540 -75.3450 249° West 397 457 38,000  Level FlightAware ADS-B
Wed 10:10:11 PM 42.0394 -75.4003 252° West 398 458 38,000  Level FlightAware ADS-B (CYYZ)
Wed 10:10:17 PM 42.0360 -75.4150 253° West 399 459 38,000  Level FlightAware ADS-B
Wed 10:10:42 PM 42.0220 -75.4743 254° West 399 459 38,000  Level FlightAware ADS-B (CYYZ)
Wed 10:10:53 PM 42.0160 -75.5010 254° West 400 460 38,000  Level FlightAware ADS-B
Wed 10:11:06 PM 42.0092 -75.5324 254° West 400 460 38,000  Level FlightAware ADS-B
Wed 10:11:23 PM 42.0010 -75.5720 254° West 401 461 38,000  Level FlightAware ADS-B
Wed 10:11:58 PM 41.9820 -75.6570 254° West 399 459 38,000  Level FlightAware ADS-B
Wed 10:12:12 PM 41.9762 -75.6832 254° West 398 458 38,000  Level FlightAware ADS-B (CYYZ)
Wed 10:12:18 PM 41.9725 -75.7000 253° West 397 457 38,000  Level FlightAware ADS-B
Wed 10:12:42 PM 41.9605 -75.7528 254° West 396 456 38,000  Level FlightAware ADS-B (CYYZ)
Wed 10:13:10 PM 41.9440 -75.8260 253° West 395 455 38,000  Level FlightAware ADS-B
Wed 10:13:13 PM 41.9437 -75.8260 253° West 394 453 38,000  Level FlightAware ADS-B (CYYZ)
Wed 10:13:16 PM 41.9417 -75.8352 253° West 394 453 38,000  Level FlightAware ADS-B
Wed 10:13:41 PM 41.9280 -75.8970 253° West 394 453 38,000  Level FlightAware ADS-B
Wed 10:13:58 PM 41.9192 -75.9328 253° West 393 452 38,000  Level FlightAware ADS-B (CYYZ)
Wed 10:14:11 PM 41.9120 -75.9660 253° West 395 455 38,000  Level FlightAware ADS-B
Wed 10:14:44 PM 41.8939 -76.0424 253° West 393 452 38,000  Level FlightAware ADS-B (CYYZ)
Wed 10:14:46 PM 41.8920 -76.0490 253° West 394 453 38,000  Level FlightAware ADS-B
Wed 10:15:16 PM 41.8760 -76.1180 254° West 395 455 38,000  Level FlightAware ADS-B
Wed 10:15:29 PM 41.8697 -76.1470 253° West 394 453 38,000  Level FlightAware ADS-B (CYYZ)
Wed 10:15:47 PM 41.8600 -76.1890 253° West 398 458 38,000  Level FlightAware ADS-B
Wed 10:16:14 PM 41.8451 -76.2527 253° West 397 457 38,000  Level FlightAware ADS-B (CYYZ)
Wed 10:16:17 PM 41.8428 -76.2624 253° West 398 458 38,000  Level FlightAware ADS-B
Wed 10:16:34 PM 41.8340 -76.3020 253° West 399 459 38,000  Level FlightAware ADS-B
Wed 10:16:44 PM 41.8282 -76.3244 253° West 399 459 38,000  Level FlightAware ADS-B (CYYZ)
Wed 10:17:04 PM 41.8170 -76.3720 253° West 400 460 38,000  Level FlightAware ADS-B
Wed 10:17:15 PM 41.8302 -76.3161 253° West 400 460 38,000  Level FlightAware ADS-B
Wed 10:17:30 PM 41.8029 -76.4320 253° West 400 460 38,000  Level FlightAware ADS-B (CYYZ)
Wed 10:17:35 PM 41.8000 -76.4440 253° West 401 461 38,000  Level FlightAware ADS-B
Wed 10:18:00 PM 41.7877 -76.4966 253° West 402 463 38,000  Level FlightAware ADS-B (CYYZ)
Wed 10:18:10 PM 41.7800 -76.5290 253° West 404 465 38,000  Level FlightAware ADS-B
Wed 10:18:45 PM 41.7609 -76.6100 253° West 405 466 38,000  Level FlightAware ADS-B (CYYZ)
Wed 10:18:47 PM 41.7600 -76.6150 253° West 406 467 38,000  Level FlightAware ADS-B
Wed 10:19:17 PM 41.7430 -76.6870 253° West 408 470 38,000  Level FlightAware ADS-B
Wed 10:19:30 PM 41.7352 -76.7187 253° West 407 468 38,000  Level FlightAware ADS-B (CYYZ)
Wed 10:19:46 PM 41.7260 -76.7580 253° West 408 470 38,000  Level FlightAware ADS-B
Wed 10:20:13 PM 41.7109 -76.8196 253° West 407 468 38,000  Level FlightAware ADS-B (CYYZ)
Wed 10:20:22 PM 41.7050 -76.8440 253° West 410 472 38,000  Level FlightAware ADS-B
Wed 10:20:45 PM 41.6926 -76.8963 253° West 409 471 38,000  Level FlightAware ADS-B (CYYZ)
Wed 10:20:53 PM 41.6880 -76.9170 253° West 411 473 38,000  Level FlightAware ADS-B
Wed 10:21:17 PM 41.6734 -76.9760 252° West 410 472 38,000  Level FlightAware ADS-B
Wed 10:21:29 PM 41.6670 -77.0030 253° West 412 474 38,000  Level FlightAware ADS-B
Wed 10:21:31 PM 41.6655 -77.0091 253° West 410 472 38,000  Level FlightAware ADS-B (CYYZ)
Wed 10:21:59 PM 41.6490 -77.0750 253° West 413 475 38,000  Level FlightAware ADS-B
Wed 10:22:16 PM 41.6390 -77.1185 253° West 413 475 38,000  Level FlightAware ADS-B (CYYZ)
Wed 10:22:28 PM 41.6320 -77.1480 252° West 415 478 38,000  Level FlightAware ADS-B
Wed 10:22:58 PM 41.6140 -77.2210 252° West 416 479 38,000  Level FlightAware ADS-B
Wed 10:23:01 PM 41.6126 -77.2270 252° West 414 476 38,000  Level FlightAware ADS-B (CYYZ)
Wed 10:23:11 PM 41.6086 -77.2433 252° West 416 479 38,000  Level FlightAware ADS-B
Wed 10:23:29 PM 41.5960 -77.2950 252° West 417 480 38,000  Level FlightAware ADS-B
Wed 10:23:32 PM 41.5945 -77.3010 252° West 416 479 38,000  Level FlightAware ADS-B (CYYZ)
Wed 10:24:05 PM 41.5750 -77.3830 252° West 416 479 38,000  Level FlightAware ADS-B
Wed 10:24:17 PM 41.5673 -77.4117 252° West 415 478 38,000  Level FlightAware ADS-B (CYYZ)
Wed 10:24:41 PM 41.5530 -77.4690 252° West 415 478 38,000  Level FlightAware ADS-B
Wed 10:25:02 PM 41.5401 -77.5224 252° West 412 474 38,000  Level FlightAware ADS-B (CYYZ)
Wed 10:25:11 PM 41.5350 -77.5410 252° West 412 474 38,000  Level FlightAware ADS-B
Wed 10:25:32 PM 41.5223 -77.5946 252° West 410 472 38,000  Level FlightAware ADS-B (CYYZ)
Wed 10:25:46 PM 41.5140 -77.6280 253° West 410 472 38,000  Level FlightAware ADS-B
Wed 10:25:58 PM 41.5090 -77.6580 261° West 408 470 38,000  Level FlightAware ADS-B
Wed 10:26:18 PM 41.5056 -77.7016 267° West 406 467 38,000  Level FlightAware ADS-B (CYYZ)
Wed 10:26:29 PM 41.5040 -77.7320 266° West 407 468 38,000  Level FlightAware ADS-B
Wed 10:26:48 PM 41.5015 -77.7796 267° West 404 465 38,000  Level FlightAware ADS-B (CYYZ)
Wed 10:27:16 PM 41.4980 -77.8510 267° West 403 464 38,000  Level FlightAware ADS-B
Wed 10:27:33 PM 41.4961 -77.8880 266° West 402 463 38,000  Level FlightAware ADS-B (CYYZ)
Wed 10:27:46 PM 41.4940 -77.9250 266° West 402 463 38,000  Level FlightAware ADS-B
Wed 10:28:16 PM 41.4900 -77.9990 266° West 402 463 38,000  Level FlightAware ADS-B
Wed 10:28:19 PM 41.4895 -78.0039 266° West 401 461 38,000  Level FlightAware ADS-B (CYYZ)
Wed 10:29:04 PM 41.4811 -78.1135 265° West 402 463 38,000  Level FlightAware ADS-B (CYYZ)
Wed 10:29:34 PM 41.4759 -78.1901 266° West 403 464 38,000  Level FlightAware ADS-B (CYYZ)
Wed 10:30:04 PM 41.4715 -78.2582 265° West 402 463 38,000  Level FlightAware ADS-B (CYYZ)
Wed 10:30:50 PM 41.4636 -78.3763 265° West 401 461 38,000  Level FlightAware ADS-B (CYYZ)
Wed 10:31:20 PM 41.4588 -78.4507 266° West 398 458 38,000  Level FlightAware ADS-B (CYYZ)
Wed 10:32:05 PM 41.4471 -78.5575 259° West 396 456 38,000  Level FlightAware ADS-B (CYYZ)
Wed 10:32:50 PM 41.4317 -78.6647 260° West 394 453 38,000  Level FlightAware ADS-B (CYYZ)
Wed 10:33:36 PM 41.4158 -78.7753 260° West 391 450 38,000  Level FlightAware ADS-B (CYYZ)
Wed 10:34:21 PM 41.3953 -78.8802 254° West 390 449 38,000  Level FlightAware ADS-B (CYYZ)
Wed 10:35:06 PM 41.3664 -78.9816 245° Southwest 391 450 38,000  Level FlightAware ADS-B (CYYZ)
Wed 10:35:51 PM 41.3319 -79.0796 245° Southwest 390 449 38,000  Level FlightAware ADS-B (CYYZ)
Wed 10:36:22 PM 41.3078 -79.1448 244° Southwest 388 447 38,000  Level FlightAware ADS-B (CYYZ)
Wed 10:36:52 PM 41.2837 -79.2087 244° Southwest 386 444 38,000  Level FlightAware ADS-B (CYYZ)
Wed 10:37:22 PM 41.2600 -79.2717 244° Southwest 386 444 38,000  Level FlightAware ADS-B (CYYZ)
Wed 10:38:08 PM 41.2226 -79.3701 244° Southwest 386 444 38,000  Level FlightAware ADS-B (CYYZ)
Wed 10:38:39 PM 41.1985 -79.4339 244° Southwest 386 444 38,000  Level FlightAware ADS-B (CYYZ)
Wed 10:39:09 PM 41.1748 -79.4964 244° Southwest 386 444 38,000  Level FlightAware ADS-B (CYYZ)
Wed 10:39:27 PM 41.1921 -79.4509 243° Southwest 387 445 38,000  Level FlightAware ADS-B (EPLB / LUZ)
Wed 10:39:54 PM 41.1382 -79.5925 244° Southwest 385 443 38,000  Level FlightAware ADS-B (CYYZ)
Wed 10:40:04 PM 41.1347 -79.6018 243° Southwest 386 444 38,000  Level FlightAware ADS-B (EPLB / LUZ)
Wed 10:40:25 PM 41.1139 -79.6565 244° Southwest 386 444 38,000  Level FlightAware ADS-B (CYYZ)
Wed 10:41:10 PM 41.0772 -79.7525 244° Southwest 386 444 38,000  Level FlightAware ADS-B (CYYZ)
Wed 10:41:32 PM 41.0592 -79.7994 243° Southwest 387 445 38,000  Level FlightAware ADS-B (EPLB / LUZ)
Wed 10:41:40 PM 41.0527 -79.8160 244° Southwest 388 447 38,000  Level FlightAware ADS-B (CYYZ)
Wed 10:42:10 PM 41.0286 -79.8792 244° Southwest 386 444 38,000  Level FlightAware ADS-B (CYYZ)
Wed 10:42:27 PM 41.0143 -79.9161 243° Southwest 387 445 38,000  Level FlightAware ADS-B (EGXP / SQZ)
Wed 10:42:40 PM 41.0051 -79.9401 244° Southwest 385 443 38,000  Level FlightAware ADS-B (CYYZ)
Wed 10:43:26 PM 40.9669 -80.0390 243° Southwest 384 442 38,000  Level FlightAware ADS-B (CYYZ)
Wed 10:44:11 PM 40.9303 -80.1333 243° Southwest 384 442 38,000  Level FlightAware ADS-B (CYYZ)
Wed 10:44:56 PM 40.8942 -80.2265 243° Southwest 385 443 38,000  Level FlightAware ADS-B (CYYZ)
Wed 10:45:41 PM 40.8571 -80.3215 243° Southwest 385 443 38,000  Level FlightAware ADS-B (CYYZ)
Wed 10:46:13 PM 40.8319 -80.3864 243° Southwest 386 444 38,000  Level FlightAware ADS-B (EGXP / SQZ)
Wed 10:46:27 PM 40.8241 -80.4061 243° Southwest 387 445 38,000  Level FlightAware ADS-B (CYYZ)
Wed 10:46:43 PM 40.8092 -80.4443 243° Southwest 388 447 38,000  Level FlightAware ADS-B (EGXP / SQZ)
Wed 10:46:57 PM 40.7956 -80.4790 243° Southwest 390 449 38,000  Level FlightAware ADS-B (CYYZ)
Wed 10:47:42 PM 40.7580 -80.5747 243° Southwest 392 451 38,000  Level FlightAware ADS-B (CYYZ)
Wed 10:48:27 PM 40.7206 -80.6695 243° Southwest 395 455 38,000  Level FlightAware ADS-B (CYYZ)
Wed 10:49:12 PM 40.6837 -80.7626 243° Southwest 399 459 38,000  Level FlightAware ADS-B (CYYZ)
Wed 10:49:42 PM 40.6584 -80.8265 243° Southwest 400 460 38,000  Level FlightAware ADS-B (CYYZ)
Wed 10:50:23 PM 40.6263 -80.9072 243° Southwest 403 464 38,000  Level FlightAware ADS-B (CYYZ)
Wed 10:51:13 PM 40.5774 -81.0298 243° Southwest 405 466 38,000  Level FlightAware ADS-B (CYYZ)
Wed 10:51:58 PM 40.5374 -81.1293 243° Southwest 405 466 38,000  Level FlightAware ADS-B (CYYZ)
Wed 10:52:44 PM 40.4979 -81.2276 243° Southwest 406 467 38,000  Level FlightAware ADS-B (CYYZ)
Wed 10:57:10 PM 40.2685 -81.7925 242° Southwest 397 457 38,000  Level FlightAware ADS-B (EGCN / DSA)
Wed 11:00:08 PM 40.1149 -82.1644 242° Southwest 395 455 38,000 -25 Level FlightAware ADS-B (EGCN / DSA)
Wed 11:01:09 PM 40.0573 -82.3035 242° Southwest 413 475 37,900 -387 Descending FlightAware ADS-B (EGCN / DSA)
Wed 11:01:41 PM 40.0360 -82.3544 241° Southwest 422 486 37,400 -973 Descending FlightAware ADS-B (EGCN / DSA)
Wed 11:02:23 PM 39.9898 -82.4645 242° Southwest 421 484 36,700 -973 Descending FlightAware ADS-B (EGCN / DSA)
Wed 11:02:55 PM 39.9583 -82.5397 242° Southwest 431 496 36,200 -968 Descending FlightAware ADS-B (EGCN / DSA)
Wed 11:03:25 PM 39.9330 -82.5998 241° Southwest 432 497 35,700 -1,180 Descending FlightAware ADS-B (EGCN / DSA)
Wed 11:03:56 PM 39.9019 -82.6735 241° Southwest 440 506 35,000 -880 Descending FlightAware ADS-B (EGCN / DSA)
Wed 11:04:40 PM 39.8599 -82.7728 241° Southwest 449 517 34,600 -892 Descending FlightAware ADS-B (EGCN / DSA)
Wed 11:05:10 PM 39.8259 -82.8528 241° Southwest 455 524 33,900 -1,200 Descending FlightAware ADS-B (EGCN / DSA)
Wed 11:05:40 PM 39.7956 -82.9240 241° Southwest 455 524 33,400 -900 Descending FlightAware ADS-B (EGCN / DSA)
Wed 11:06:10 PM 39.7655 -82.9947 241° Southwest 455 524 33,000 -202 Descending FlightAware ADS-B (EGCN / DSA)
Wed 11:07:39 PM 39.6778 -83.1995 241° Southwest 459 528 33,000  Level FlightAware ADS-B (EGCN / DSA)
Wed 11:08:25 PM 39.6279 -83.3154 241° Southwest 462 532 33,000  Level FlightAware ADS-B (EGCN / DSA)
Wed 11:09:14 PM 39.5808 -83.4247 241° Southwest 461 531 33,000  Level Cleveland Center
Wed 11:09:53 PM 39.5419 -83.5142 241° Southwest 466 536 33,000  Level Indianapolis Center
Wed 11:10:54 PM 39.4772 -83.6628 241° Southwest 468 539 33,000 -1,337 Level Indianapolis Center
Wed 11:16:37 PM 39.1079 -84.4982 240° Southwest 436 502 24,000 -1,395 Descending FlightAware ADS-B (KCVG)
Wed 11:17:21 PM 39.0626 -84.5999 240° Southwest 437 503 24,000 -1,200 Level FlightAware ADS-B (KCVG)
Wed 11:18:02 PM 39.0197 -84.6883 233° Southwest 429 494 22,300 -2,630 Descending FlightAware ADS-B (KCVG)
Wed 11:18:34 PM 38.9814 -84.7366 219° Southwest 430 495 20,800 -2,595 Descending FlightAware ADS-B (KCVG)
Wed 11:19:16 PM 38.9121 -84.8056 217° Southwest 424 488 19,100 -3,081 Descending FlightAware ADS-B (KCVG)
Wed 11:19:48 PM 38.8602 -84.8547 217° Southwest 410 472 17,000 -3,395 Descending FlightAware ADS-B (KCVG)
Wed 11:20:32 PM 38.8086 -84.9042 217° Southwest 386 444 14,800 -2,560 Descending FlightAware ADS-B (KCVG)
Wed 11:21:03 PM 38.7508 -84.9601 217° Southwest 393 452 13,800 -1,750 Descending FlightAware ADS-B (KCVG)
Wed 11:22:08 PM 38.6537 -85.0538 217° Southwest 393 452 12,000 -1,185 Descending FlightAware ADS-B (KCVG)
Wed 11:23:40 PM 38.5380 -85.1935 233° Southwest 349 402 10,700 -803 Descending FlightAware ADS-B
Wed 11:24:45 PM 38.4796 -85.2923 233° Southwest 304 350 9,900 -768 Descending FlightAware ADS-B
Wed 11:25:45 PM 38.4320 -85.3724 233° Southwest 279 321 9,100 -990 Descending FlightAware ADS-B
Wed 11:26:28 PM 38.3969 -85.4317 233° Southwest 277 319 8,200 -1,189 Descending FlightAware ADS-B
Wed 11:27:36 PM 38.3472 -85.5175 234° Southwest 263 303 6,900 -586 Descending FlightAware ADS-B
Wed 11:28:41 PM 38.3237 -85.5895 266° West 262 302 6,900  Level FlightAware ADS-B
Wed 11:29:49 PM 38.3164 -85.7067 265° West 220 253 6,900  Level FlightAware ADS-B
Wed 11:30:48 PM 38.3111 -85.7828 265° West 219 252 6,900 -327 Level FlightAware ADS-B
Wed 11:31:39 PM 38.3047 -85.8150 202° Southwest 234 269 6,300 -593 Descending FlightAware ADS-B
Wed 11:33:50 PM 38.1463 -85.8234 163° South 235 270 5,100 -695 Descending FlightAware ADS-B
Wed 11:34:49 PM 38.0863 -85.8015 165° South 229 264 4,100 -900 Descending FlightAware ADS-B
Wed 11:35:50 PM 38.0239 -85.7807 165° South 225 259 3,300 -694 Descending FlightAware ADS-B
Wed 11:36:50 PM 37.9944 -85.7312 59° Northeast 204 235 2,700 -508 Descending FlightAware ADS-B
Wed 11:37:48 PM 38.0390 -85.7051 12° North 192 221 2,300 -500 Descending FlightAware ADS-B
Wed 11:38:50 PM 38.0789 -85.7133 347° North 165 190 1,700 -684 Descending FlightAware ADS-B
Wed 11:39:42 PM 38.1004 -85.7202 346° North 147 169 1,000 -808 Descending FlightAware ADS-B

Login

Don't have an account? Register now (free) for customized features, flight alerts, and more!